This is the latest recevied weather packets stored in our database for station/object DC4THF-13. If no packets are shown the sender has not sent any weather packets the latest 10 day(s).
| Time | Temp. | Humidity | Pressure | Rain* | Wind** | Luminosity | Snow |
|---|---|---|---|---|---|---|---|
| 1777416790 | 6.11° C | 50% | 1022.4 hPa | 0 mm | - | - | - |
| 1777416187 | 6.11° C | 50% | 1022.4 hPa | 0 mm | - | - | - |
| 1777415587 | 6.67° C | 49% | 1022.1 hPa | 0 mm | - | - | - |
| 1777414980 | 7.22° C | 48% | 1022.1 hPa | 0 mm | - | - | - |
| 1777414377 | 7.78° C | 44% | 1022.2 hPa | 0 mm | - | - | - |
| 1777413774 | 7.78° C | 40% | 1022 hPa | 0 mm | - | - | - |
| 1777413171 | 7.78° C | 40% | 1021.9 hPa | 0 mm | - | - | - |
| 1777412568 | 8.33° C | 40% | 1021.9 hPa | 0 mm | - | - | - |
| 1777411964 | 8.33° C | 40% | 1021.7 hPa | 0 mm | - | - | - |
| 1777411361 | 8.33° C | 40% | 1021.7 hPa | 0 mm | - | - | - |
| 1777410758 | 8.89° C | 39% | 1021.5 hPa | 0 mm | - | - | - |
| 1777410155 | 8.89° C | 39% | 1021.4 hPa | 0 mm | - | - | - |
| 1777409552 | 8.89° C | 39% | 1021.4 hPa | 0 mm | - | - | - |
| 1777408948 | 9.44° C | 38% | 1021.4 hPa | 0 mm | - | - | - |
| 1777408345 | 9.44° C | 38% | 1021.3 hPa | 0 mm | - | - | - |
| 1777407743 | 9.44° C | 38% | 1021.2 hPa | 0 mm | - | - | - |
| 1777407138 | 9.44° C | 39% | 1021 hPa | 0 mm | - | - | - |
| 1777406535 | 9.44° C | 39% | 1021 hPa | 0 mm | - | - | - |
| 1777405992 | 9.44° C | 40% | 1020.8 hPa | 0 mm | - | - | - |
| 1777405389 | 7.78° C | 47% | 1020.7 hPa | 0 mm | - | - | - |
| 1777404786 | 7.78° C | 41% | 1020.4 hPa | 0 mm | - | - | - |
| 1777404184 | 8.33° C | 40% | 1020.3 hPa | 0 mm | - | - | - |
| 1777403579 | 8.33° C | 36% | 1020.2 hPa | 0 mm | - | - | - |
| 1777402976 | 9.44° C | 33% | 1020 hPa | 0 mm | - | - | - |
| 1777402373 | 10° C | 32% | 1019.9 hPa | 0 mm | - | - | - |
* Rain latest hour (hover to see other rain measurements)
** Current wind speed in m/s (hover to see current wind gust speed)